sensor_id;sensor_type;location;lat;lon;timestamp;temperature;humidity
16781;DHT22;8507;50.056;8.248;2022-08-01T00:01:32;23.50;99.90
16781;DHT22;8507;50.056;8.248;2022-08-01T00:03:58;23.30;99.90
16781;DHT22;8507;50.056;8.248;2022-08-01T00:06:23;23.30;99.90
16781;DHT22;8507;50.056;8.248;2022-08-01T00:08:49;23.30;99.90
16781;DHT22;8507;50.056;8.248;2022-08-01T00:11:14;23.30;99.90
16781;DHT22;8507;50.056;8.248;2022-08-01T00:13:40;23.30;99.90
16781;DHT22;8507;50.056;8.248;2022-08-01T00:16:06;23.20;99.90
16781;DHT22;8507;50.056;8.248;2022-08-01T00:18:31;23.10;99.90
16781;DHT22;8507;50.056;8.248;2022-08-01T00:20:57;23.20;99.90
16781;DHT22;8507;50.056;8.248;2022-08-01T00:23:22;23.20;99.90
16781;DHT22;8507;50.056;8.248;2022-08-01T00:25:48;23.10;99.90
16781;DHT22;8507;50.056;8.248;2022-08-01T00:28:13;23.10;99.90
16781;DHT22;8507;50.056;8.248;2022-08-01T00:30:39;23.00;99.90
16781;DHT22;8507;50.056;8.248;2022-08-01T00:33:05;23.00;99.90
16781;DHT22;8507;50.056;8.248;2022-08-01T00:35:30;23.00;99.90
16781;DHT22;8507;50.056;8.248;2022-08-01T00:37:56;22.90;99.90
16781;DHT22;8507;50.056;8.248;2022-08-01T00:40:21;22.90;99.90
16781;DHT22;8507;50.056;8.248;2022-08-01T00:42:47;22.90;99.90
16781;DHT22;8507;50.056;8.248;2022-08-01T00:45:13;22.90;99.90
16781;DHT22;8507;50.056;8.248;2022-08-01T00:47:38;22.80;99.90
16781;DHT22;8507;50.056;8.248;2022-08-01T00:50:05;22.80;99.90
16781;DHT22;8507;50.056;8.248;2022-08-01T00:52:31;22.70;99.90
16781;DHT22;8507;50.056;8.248;2022-08-01T00:54:57;22.70;99.90
16781;DHT22;8507;50.056;8.248;2022-08-01T00:57:23;22.60;99.90
16781;DHT22;8507;50.056;8.248;2022-08-01T00:59:48;22.60;99.90
16781;DHT22;8507;50.056;8.248;2022-08-01T01:02:14;22.60;99.90
16781;DHT22;8507;50.056;8.248;2022-08-01T01:04:39;22.60;99.90
16781;DHT22;8507;50.056;8.248;2022-08-01T01:10:03;22.50;99.90
16781;DHT22;8507;50.056;8.248;2022-08-01T01:12:38;22.50;99.90
16781;DHT22;8507;50.056;8.248;2022-08-01T01:17:51;22.40;99.90
16781;DHT22;8507;50.056;8.248;2022-08-01T01:20:20;22.40;99.90
16781;DHT22;8507;50.056;8.248;2022-08-01T01:22:53;22.40;99.90
16781;DHT22;8507;50.056;8.248;2022-08-01T01:28:34;22.40;99.90
16781;DHT22;8507;50.056;8.248;2022-08-01T01:31:01;22.30;99.90
16781;DHT22;8507;50.056;8.248;2022-08-01T01:33:29;22.30;99.90
16781;DHT22;8507;50.056;8.248;2022-08-01T01:36:00;22.30;99.90
16781;DHT22;8507;50.056;8.248;2022-08-01T01:38:29;22.30;99.90
16781;DHT22;8507;50.056;8.248;2022-08-01T01:40:57;22.30;99.90
16781;DHT22;8507;50.056;8.248;2022-08-01T01:43:23;22.30;99.90
16781;DHT22;8507;50.056;8.248;2022-08-01T01:45:50;22.20;99.90
16781;DHT22;8507;50.056;8.248;2022-08-01T01:48:18;22.20;99.90
16781;DHT22;8507;50.056;8.248;2022-08-01T01:50:46;22.30;99.90
16781;DHT22;8507;50.056;8.248;2022-08-01T01:53:17;22.20;99.90
16781;DHT22;8507;50.056;8.248;2022-08-01T01:55:46;22.20;99.90
16781;DHT22;8507;50.056;8.248;2022-08-01T01:58:14;22.30;99.90
16781;DHT22;8507;50.056;8.248;2022-08-01T02:00:44;22.20;99.90
16781;DHT22;8507;50.056;8.248;2022-08-01T02:03:12;22.20;99.90
16781;DHT22;8507;50.056;8.248;2022-08-01T02:05:38;22.10;99.90
16781;DHT22;8507;50.056;8.248;2022-08-01T02:08:05;22.10;99.90
16781;DHT22;8507;50.056;8.248;2022-08-01T02:10:33;22.00;99.90
16781;DHT22;8507;50.056;8.248;2022-08-01T02:13:02;21.90;99.90
16781;DHT22;8507;50.056;8.248;2022-08-01T02:15:30;21.70;99.90
16781;DHT22;8507;50.056;8.248;2022-08-01T02:17:57;21.70;99.90
16781;DHT22;8507;50.056;8.248;2022-08-01T02:20:24;21.70;99.90
16781;DHT22;8507;50.056;8.248;2022-08-01T02:23:01;21.80;99.90
16781;DHT22;8507;50.056;8.248;2022-08-01T02:25:49;21.80;99.90
16781;DHT22;8507;50.056;8.248;2022-08-01T02:28:20;21.60;99.90
16781;DHT22;8507;50.056;8.248;2022-08-01T02:30:50;21.60;99.90
16781;DHT22;8507;50.056;8.248;2022-08-01T02:33:23;21.60;99.90
16781;DHT22;8507;50.056;8.248;2022-08-01T02:35:56;21.40;99.90
16781;DHT22;8507;50.056;8.248;2022-08-01T02:38:26;21.50;99.90
16781;DHT22;8507;50.056;8.248;2022-08-01T02:40:55;21.50;99.90
16781;DHT22;8507;50.056;8.248;2022-08-01T02:43:25;21.60;99.90
16781;DHT22;8507;50.056;8.248;2022-08-01T02:45:54;21.60;99.90
16781;DHT22;8507;50.056;8.248;2022-08-01T02:48:23;21.50;99.90
16781;DHT22;8507;50.056;8.248;2022-08-01T02:50:53;21.50;99.90
16781;DHT22;8507;50.056;8.248;2022-08-01T02:53:21;21.50;99.90
16781;DHT22;8507;50.056;8.248;2022-08-01T02:55:49;21.40;99.90
16781;DHT22;8507;50.056;8.248;2022-08-01T02:58:16;21.50;99.90
16781;DHT22;8507;50.056;8.248;2022-08-01T03:00:44;21.50;99.90
16781;DHT22;8507;50.056;8.248;2022-08-01T03:03:13;21.60;99.90
16781;DHT22;8507;50.056;8.248;2022-08-01T03:05:41;21.70;99.90
16781;DHT22;8507;50.056;8.248;2022-08-01T03:08:08;21.60;99.90
16781;DHT22;8507;50.056;8.248;2022-08-01T03:10:37;21.70;99.90
16781;DHT22;8507;50.056;8.248;2022-08-01T03:13:04;21.70;99.90
16781;DHT22;8507;50.056;8.248;2022-08-01T03:15:35;21.60;99.90
16781;DHT22;8507;50.056;8.248;2022-08-01T03:18:02;21.60;99.90
16781;DHT22;8507;50.056;8.248;2022-08-01T03:20:30;21.60;99.90
16781;DHT22;8507;50.056;8.248;2022-08-01T03:23:01;21.50;99.90
16781;DHT22;8507;50.056;8.248;2022-08-01T03:25:29;21.40;99.90
16781;DHT22;8507;50.056;8.248;2022-08-01T03:27:59;21.40;99.90
16781;DHT22;8507;50.056;8.248;2022-08-01T03:30:27;21.50;99.90
16781;DHT22;8507;50.056;8.248;2022-08-01T03:32:52;21.50;99.90
16781;DHT22;8507;50.056;8.248;2022-08-01T03:35:19;21.30;99.90
16781;DHT22;8507;50.056;8.248;2022-08-01T03:37:47;21.20;99.90
16781;DHT22;8507;50.056;8.248;2022-08-01T03:40:31;21.30;99.90
16781;DHT22;8507;50.056;8.248;2022-08-01T03:43:13;21.40;99.90
16781;DHT22;8507;50.056;8.248;2022-08-01T03:45:44;21.50;99.90
16781;DHT22;8507;50.056;8.248;2022-08-01T03:48:15;21.40;99.90
16781;DHT22;8507;50.056;8.248;2022-08-01T03:50:43;21.40;99.90
16781;DHT22;8507;50.056;8.248;2022-08-01T03:53:11;21.50;99.90
16781;DHT22;8507;50.056;8.248;2022-08-01T03:55:39;21.60;99.90
16781;DHT22;8507;50.056;8.248;2022-08-01T03:58:07;21.50;99.90
16781;DHT22;8507;50.056;8.248;2022-08-01T04:00:38;21.60;99.90
16781;DHT22;8507;50.056;8.248;2022-08-01T04:03:06;21.70;99.90
16781;DHT22;8507;50.056;8.248;2022-08-01T04:05:32;21.60;99.90
16781;DHT22;8507;50.056;8.248;2022-08-01T04:07:57;21.60;99.90
16781;DHT22;8507;50.056;8.248;2022-08-01T04:10:25;21.80;99.90
16781;DHT22;8507;50.056;8.248;2022-08-01T04:12:51;21.80;99.90
16781;DHT22;8507;50.056;8.248;2022-08-01T04:15:17;21.80;99.90
16781;DHT22;8507;50.056;8.248;2022-08-01T04:17:43;21.80;99.90
16781;DHT22;8507;50.056;8.248;2022-08-01T04:20:09;21.90;99.90
16781;DHT22;8507;50.056;8.248;2022-08-01T04:22:36;22.10;99.90
16781;DHT22;8507;50.056;8.248;2022-08-01T04:25:06;22.20;99.90
16781;DHT22;8507;50.056;8.248;2022-08-01T04:27:39;22.20;99.90
16781;DHT22;8507;50.056;8.248;2022-08-01T04:30:07;22.20;99.90
16781;DHT22;8507;50.056;8.248;2022-08-01T04:32:37;22.20;99.90
16781;DHT22;8507;50.056;8.248;2022-08-01T04:35:06;22.20;99.90
16781;DHT22;8507;50.056;8.248;2022-08-01T04:37:33;22.30;99.90
16781;DHT22;8507;50.056;8.248;2022-08-01T04:40:04;22.10;99.90
16781;DHT22;8507;50.056;8.248;2022-08-01T04:42:31;22.00;99.90
16781;DHT22;8507;50.056;8.248;2022-08-01T04:44:58;21.70;99.90
16781;DHT22;8507;50.056;8.248;2022-08-01T04:47:25;21.80;99.90
16781;DHT22;8507;50.056;8.248;2022-08-01T04:49:51;21.90;99.90
16781;DHT22;8507;50.056;8.248;2022-08-01T04:52:16;22.00;99.90
16781;DHT22;8507;50.056;8.248;2022-08-01T04:54:43;21.80;99.90
16781;DHT22;8507;50.056;8.248;2022-08-01T04:57:09;21.90;99.90
16781;DHT22;8507;50.056;8.248;2022-08-01T04:59:36;21.60;99.90
16781;DHT22;8507;50.056;8.248;2022-08-01T05:02:09;21.80;99.90
16781;DHT22;8507;50.056;8.248;2022-08-01T05:04:36;22.00;99.90
16781;DHT22;8507;50.056;8.248;2022-08-01T05:07:02;22.10;99.90
16781;DHT22;8507;50.056;8.248;2022-08-01T05:09:28;22.30;99.90
16781;DHT22;8507;50.056;8.248;2022-08-01T05:11:54;22.50;99.90
16781;DHT22;8507;50.056;8.248;2022-08-01T05:14:19;22.60;99.90
16781;DHT22;8507;50.056;8.248;2022-08-01T05:16:46;22.70;99.90
16781;DHT22;8507;50.056;8.248;2022-08-01T05:19:11;22.80;99.90
16781;DHT22;8507;50.056;8.248;2022-08-01T05:21:37;22.90;99.90
16781;DHT22;8507;50.056;8.248;2022-08-01T05:24:04;22.90;99.90
16781;DHT22;8507;50.056;8.248;2022-08-01T05:26:30;23.00;99.90
16781;DHT22;8507;50.056;8.248;2022-08-01T05:28:55;23.10;99.90
16781;DHT22;8507;50.056;8.248;2022-08-01T05:31:21;23.20;99.90
16781;DHT22;8507;50.056;8.248;2022-08-01T05:33:46;23.20;99.90
16781;DHT22;8507;50.056;8.248;2022-08-01T05:36:12;23.10;99.90
16781;DHT22;8507;50.056;8.248;2022-08-01T05:38:37;23.10;99.90
16781;DHT22;8507;50.056;8.248;2022-08-01T05:41:03;23.20;99.90
16781;DHT22;8507;50.056;8.248;2022-08-01T05:43:28;23.30;99.90
16781;DHT22;8507;50.056;8.248;2022-08-01T05:45:54;23.30;99.90
16781;DHT22;8507;50.056;8.248;2022-08-01T05:48:19;23.40;99.90
16781;DHT22;8507;50.056;8.248;2022-08-01T05:50:45;23.40;99.90
16781;DHT22;8507;50.056;8.248;2022-08-01T05:53:13;23.30;99.90
16781;DHT22;8507;50.056;8.248;2022-08-01T05:55:39;23.30;99.90
16781;DHT22;8507;50.056;8.248;2022-08-01T05:58:04;23.30;99.90
16781;DHT22;8507;50.056;8.248;2022-08-01T06:00:30;23.40;99.90
16781;DHT22;8507;50.056;8.248;2022-08-01T06:02:56;23.30;99.90
16781;DHT22;8507;50.056;8.248;2022-08-01T06:05:21;23.30;99.90
16781;DHT22;8507;50.056;8.248;2022-08-01T06:07:47;23.40;99.90
16781;DHT22;8507;50.056;8.248;2022-08-01T06:10:12;23.50;99.90
16781;DHT22;8507;50.056;8.248;2022-08-01T06:12:38;23.80;99.90
16781;DHT22;8507;50.056;8.248;2022-08-01T06:15:04;24.10;99.90
16781;DHT22;8507;50.056;8.248;2022-08-01T06:17:30;24.30;99.90
16781;DHT22;8507;50.056;8.248;2022-08-01T06:19:56;24.50;99.90
16781;DHT22;8507;50.056;8.248;2022-08-01T06:22:21;24.60;99.90
16781;DHT22;8507;50.056;8.248;2022-08-01T06:24:47;24.70;99.90
16781;DHT22;8507;50.056;8.248;2022-08-01T06:27:12;24.70;99.90
16781;DHT22;8507;50.056;8.248;2022-08-01T06:29:38;24.60;99.90
16781;DHT22;8507;50.056;8.248;2022-08-01T06:32:04;24.70;99.90
16781;DHT22;8507;50.056;8.248;2022-08-01T06:34:29;24.90;99.90
16781;DHT22;8507;50.056;8.248;2022-08-01T06:36:55;25.00;99.90
16781;DHT22;8507;50.056;8.248;2022-08-01T06:39:20;25.20;99.90
16781;DHT22;8507;50.056;8.248;2022-08-01T06:41:46;25.20;99.90
16781;DHT22;8507;50.056;8.248;2022-08-01T06:44:13;25.40;99.90
16781;DHT22;8507;50.056;8.248;2022-08-01T06:46:38;25.60;99.90
16781;DHT22;8507;50.056;8.248;2022-08-01T06:49:04;25.80;99.90
16781;DHT22;8507;50.056;8.248;2022-08-01T06:51:29;25.90;99.90
16781;DHT22;8507;50.056;8.248;2022-08-01T06:53:55;25.80;99.90
16781;DHT22;8507;50.056;8.248;2022-08-01T06:56:20;25.90;99.90
16781;DHT22;8507;50.056;8.248;2022-08-01T06:58:46;25.70;99.90
16781;DHT22;8507;50.056;8.248;2022-08-01T07:01:12;25.80;99.90
16781;DHT22;8507;50.056;8.248;2022-08-01T07:03:37;25.70;99.90
16781;DHT22;8507;50.056;8.248;2022-08-01T07:06:03;25.70;99.90
16781;DHT22;8507;50.056;8.248;2022-08-01T07:08:29;25.70;99.90
16781;DHT22;8507;50.056;8.248;2022-08-01T07:10:55;25.50;99.90
16781;DHT22;8507;50.056;8.248;2022-08-01T07:13:25;25.50;99.90
16781;DHT22;8507;50.056;8.248;2022-08-01T07:15:51;25.60;99.90
16781;DHT22;8507;50.056;8.248;2022-08-01T07:18:18;25.90;99.90
16781;DHT22;8507;50.056;8.248;2022-08-01T07:20:43;26.40;99.90
16781;DHT22;8507;50.056;8.248;2022-08-01T07:23:11;26.30;99.90
16781;DHT22;8507;50.056;8.248;2022-08-01T07:25:37;26.50;99.90
16781;DHT22;8507;50.056;8.248;2022-08-01T07:28:03;26.40;99.90
16781;DHT22;8507;50.056;8.248;2022-08-01T07:30:28;26.50;99.90
16781;DHT22;8507;50.056;8.248;2022-08-01T07:32:54;26.60;99.90
16781;DHT22;8507;50.056;8.248;2022-08-01T07:35:19;26.80;99.90
16781;DHT22;8507;50.056;8.248;2022-08-01T07:37:45;26.70;99.90
16781;DHT22;8507;50.056;8.248;2022-08-01T07:40:11;26.80;99.90
16781;DHT22;8507;50.056;8.248;2022-08-01T07:42:36;26.60;99.90
16781;DHT22;8507;50.056;8.248;2022-08-01T07:45:02;26.60;99.90
16781;DHT22;8507;50.056;8.248;2022-08-01T07:47:27;26.60;99.90
16781;DHT22;8507;50.056;8.248;2022-08-01T07:49:59;26.40;99.90
16781;DHT22;8507;50.056;8.248;2022-08-01T07:52:24;26.60;99.90
16781;DHT22;8507;50.056;8.248;2022-08-01T07:54:50;26.90;99.90
16781;DHT22;8507;50.056;8.248;2022-08-01T07:57:16;27.10;99.90
16781;DHT22;8507;50.056;8.248;2022-08-01T07:59:41;27.00;99.90
16781;DHT22;8507;50.056;8.248;2022-08-01T08:02:07;26.90;99.90
16781;DHT22;8507;50.056;8.248;2022-08-01T08:04:32;27.00;99.90
16781;DHT22;8507;50.056;8.248;2022-08-01T08:06:58;27.00;99.90
16781;DHT22;8507;50.056;8.248;2022-08-01T08:09:23;26.90;99.90
16781;DHT22;8507;50.056;8.248;2022-08-01T08:11:49;27.00;99.90
16781;DHT22;8507;50.056;8.248;2022-08-01T08:14:15;27.10;99.90
16781;DHT22;8507;50.056;8.248;2022-08-01T08:16:42;27.00;99.90
16781;DHT22;8507;50.056;8.248;2022-08-01T08:19:07;26.90;99.90
16781;DHT22;8507;50.056;8.248;2022-08-01T08:21:33;27.00;99.90
16781;DHT22;8507;50.056;8.248;2022-08-01T08:23:59;26.90;99.90
16781;DHT22;8507;50.056;8.248;2022-08-01T08:26:43;27.20;99.90
16781;DHT22;8507;50.056;8.248;2022-08-01T08:29:08;27.30;99.90
16781;DHT22;8507;50.056;8.248;2022-08-01T08:31:34;26.70;99.90
16781;DHT22;8507;50.056;8.248;2022-08-01T08:33:59;25.90;99.90
16781;DHT22;8507;50.056;8.248;2022-08-01T08:36:25;25.80;99.90
16781;DHT22;8507;50.056;8.248;2022-08-01T08:38:50;25.50;99.90
16781;DHT22;8507;50.056;8.248;2022-08-01T08:41:16;26.00;99.90
16781;DHT22;8507;50.056;8.248;2022-08-01T08:43:42;26.10;99.90
16781;DHT22;8507;50.056;8.248;2022-08-01T08:46:08;26.00;99.90
16781;DHT22;8507;50.056;8.248;2022-08-01T08:48:35;26.00;99.90
16781;DHT22;8507;50.056;8.248;2022-08-01T08:51:02;25.80;99.90
16781;DHT22;8507;50.056;8.248;2022-08-01T08:53:28;26.00;99.90
16781;DHT22;8507;50.056;8.248;2022-08-01T08:55:57;26.20;99.90
16781;DHT22;8507;50.056;8.248;2022-08-01T08:58:25;26.50;99.90
16781;DHT22;8507;50.056;8.248;2022-08-01T09:00:53;26.40;99.90
16781;DHT22;8507;50.056;8.248;2022-08-01T09:03:19;26.30;99.90
16781;DHT22;8507;50.056;8.248;2022-08-01T09:05:44;26.20;99.90
16781;DHT22;8507;50.056;8.248;2022-08-01T09:08:10;26.30;99.90
16781;DHT22;8507;50.056;8.248;2022-08-01T09:10:35;26.60;99.90
16781;DHT22;8507;50.056;8.248;2022-08-01T09:13:12;26.90;99.90
16781;DHT22;8507;50.056;8.248;2022-08-01T09:15:43;27.20;99.90
16781;DHT22;8507;50.056;8.248;2022-08-01T09:18:29;27.40;99.90
16781;DHT22;8507;50.056;8.248;2022-08-01T09:21:17;27.60;99.90
16781;DHT22;8507;50.056;8.248;2022-08-01T09:23:54;27.70;99.90
16781;DHT22;8507;50.056;8.248;2022-08-01T09:26:35;27.40;99.90
16781;DHT22;8507;50.056;8.248;2022-08-01T09:29:18;27.50;99.90
16781;DHT22;8507;50.056;8.248;2022-08-01T09:31:45;27.40;99.90
16781;DHT22;8507;50.056;8.248;2022-08-01T09:34:12;27.60;99.90
16781;DHT22;8507;50.056;8.248;2022-08-01T09:39:17;27.80;99.90
16781;DHT22;8507;50.056;8.248;2022-08-01T09:41:43;28.40;99.90
16781;DHT22;8507;50.056;8.248;2022-08-01T09:44:08;28.80;99.90
16781;DHT22;8507;50.056;8.248;2022-08-01T09:46:34;29.00;99.90
16781;DHT22;8507;50.056;8.248;2022-08-01T09:49:03;29.10;99.90
16781;DHT22;8507;50.056;8.248;2022-08-01T09:51:33;29.20;99.90
16781;DHT22;8507;50.056;8.248;2022-08-01T09:53:59;29.20;99.90
16781;DHT22;8507;50.056;8.248;2022-08-01T09:56:25;29.20;99.90
16781;DHT22;8507;50.056;8.248;2022-08-01T09:58:57;29.30;99.90
16781;DHT22;8507;50.056;8.248;2022-08-01T10:01:24;29.10;99.90
16781;DHT22;8507;50.056;8.248;2022-08-01T10:04:05;29.10;99.90
16781;DHT22;8507;50.056;8.248;2022-08-01T10:06:31;28.30;99.90
16781;DHT22;8507;50.056;8.248;2022-08-01T10:08:57;28.30;99.90
16781;DHT22;8507;50.056;8.248;2022-08-01T10:11:23;28.30;99.90
16781;DHT22;8507;50.056;8.248;2022-08-01T10:13:48;28.10;99.90
16781;DHT22;8507;50.056;8.248;2022-08-01T10:16:14;28.10;99.90
16781;DHT22;8507;50.056;8.248;2022-08-01T10:18:41;27.90;99.90
16781;DHT22;8507;50.056;8.248;2022-08-01T10:21:08;27.90;99.90
16781;DHT22;8507;50.056;8.248;2022-08-01T10:23:35;28.10;99.90
16781;DHT22;8507;50.056;8.248;2022-08-01T10:26:02;28.70;99.90
16781;DHT22;8507;50.056;8.248;2022-08-01T10:28:30;29.30;99.90
16781;DHT22;8507;50.056;8.248;2022-08-01T10:31:00;29.30;99.90
16781;DHT22;8507;50.056;8.248;2022-08-01T10:33:29;28.70;99.90
16781;DHT22;8507;50.056;8.248;2022-08-01T10:35:55;28.80;99.90
16781;DHT22;8507;50.056;8.248;2022-08-01T10:38:20;29.20;99.90
16781;DHT22;8507;50.056;8.248;2022-08-01T10:40:46;29.30;99.90
16781;DHT22;8507;50.056;8.248;2022-08-01T10:43:13;29.40;99.90
16781;DHT22;8507;50.056;8.248;2022-08-01T10:45:41;28.90;99.90
16781;DHT22;8507;50.056;8.248;2022-08-01T10:48:22;29.00;99.90
16781;DHT22;8507;50.056;8.248;2022-08-01T10:50:52;29.50;99.90
16781;DHT22;8507;50.056;8.248;2022-08-01T10:53:23;30.40;99.90
16781;DHT22;8507;50.056;8.248;2022-08-01T10:56:03;29.40;99.90
16781;DHT22;8507;50.056;8.248;2022-08-01T10:58:34;29.20;99.90
16781;DHT22;8507;50.056;8.248;2022-08-01T11:01:24;29.30;99.90
16781;DHT22;8507;50.056;8.248;2022-08-01T11:04:07;29.50;99.90
16781;DHT22;8507;50.056;8.248;2022-08-01T11:09:01;29.50;99.90
16781;DHT22;8507;50.056;8.248;2022-08-01T11:11:26;29.90;99.90
16781;DHT22;8507;50.056;8.248;2022-08-01T11:16:33;30.10;99.90
16781;DHT22;8507;50.056;8.248;2022-08-01T11:18:59;30.10;99.90
16781;DHT22;8507;50.056;8.248;2022-08-01T11:21:58;30.00;99.90
16781;DHT22;8507;50.056;8.248;2022-08-01T11:24:54;30.00;99.90
16781;DHT22;8507;50.056;8.248;2022-08-01T11:27:28;30.10;99.90
16781;DHT22;8507;50.056;8.248;2022-08-01T11:32:57;29.10;99.90
16781;DHT22;8507;50.056;8.248;2022-08-01T11:35:24;29.00;99.90
16781;DHT22;8507;50.056;8.248;2022-08-01T11:37:52;28.80;99.90
16781;DHT22;8507;50.056;8.248;2022-08-01T11:40:25;28.90;99.90
16781;DHT22;8507;50.056;8.248;2022-08-01T11:45:52;29.00;99.90
16781;DHT22;8507;50.056;8.248;2022-08-01T11:48:25;29.30;99.90
16781;DHT22;8507;50.056;8.248;2022-08-01T11:50:52;29.60;99.90
16781;DHT22;8507;50.056;8.248;2022-08-01T11:53:19;29.60;99.90
16781;DHT22;8507;50.056;8.248;2022-08-01T11:55:46;29.60;99.90
16781;DHT22;8507;50.056;8.248;2022-08-01T11:58:13;29.60;99.90
16781;DHT22;8507;50.056;8.248;2022-08-01T12:00:39;29.40;99.90
16781;DHT22;8507;50.056;8.248;2022-08-01T12:03:08;29.40;99.90
16781;DHT22;8507;50.056;8.248;2022-08-01T12:05:36;28.60;99.90
16781;DHT22;8507;50.056;8.248;2022-08-01T12:08:03;28.10;99.90
16781;DHT22;8507;50.056;8.248;2022-08-01T12:10:33;28.60;99.90
16781;DHT22;8507;50.056;8.248;2022-08-01T12:13:04;29.10;99.90
16781;DHT22;8507;50.056;8.248;2022-08-01T12:15:35;29.20;99.90
16781;DHT22;8507;50.056;8.248;2022-08-01T12:18:03;29.50;99.90
16781;DHT22;8507;50.056;8.248;2022-08-01T12:20:35;29.10;99.90
16781;DHT22;8507;50.056;8.248;2022-08-01T12:23:03;29.30;99.90
16781;DHT22;8507;50.056;8.248;2022-08-01T12:25:31;29.30;99.90
16781;DHT22;8507;50.056;8.248;2022-08-01T12:28:04;29.50;99.90
16781;DHT22;8507;50.056;8.248;2022-08-01T12:30:30;29.50;99.90
16781;DHT22;8507;50.056;8.248;2022-08-01T12:32:57;29.50;99.90
16781;DHT22;8507;50.056;8.248;2022-08-01T12:35:27;29.60;99.90
16781;DHT22;8507;50.056;8.248;2022-08-01T12:37:55;29.80;99.90
16781;DHT22;8507;50.056;8.248;2022-08-01T12:40:24;30.00;99.90
16781;DHT22;8507;50.056;8.248;2022-08-01T12:42:56;30.20;99.90
16781;DHT22;8507;50.056;8.248;2022-08-01T12:45:27;30.20;99.90
16781;DHT22;8507;50.056;8.248;2022-08-01T12:47:54;30.30;99.90
16781;DHT22;8507;50.056;8.248;2022-08-01T12:50:22;30.60;99.90
16781;DHT22;8507;50.056;8.248;2022-08-01T12:52:49;30.70;99.90
16781;DHT22;8507;50.056;8.248;2022-08-01T12:55:17;30.70;99.90
16781;DHT22;8507;50.056;8.248;2022-08-01T12:57:45;30.60;99.90
16781;DHT22;8507;50.056;8.248;2022-08-01T13:00:22;30.40;99.90
16781;DHT22;8507;50.056;8.248;2022-08-01T13:02:50;30.20;99.90
16781;DHT22;8507;50.056;8.248;2022-08-01T13:05:16;30.00;99.90
16781;DHT22;8507;50.056;8.248;2022-08-01T13:07:45;29.70;99.90
16781;DHT22;8507;50.056;8.248;2022-08-01T13:10:12;29.60;99.90
16781;DHT22;8507;50.056;8.248;2022-08-01T13:12:39;29.60;99.90
16781;DHT22;8507;50.056;8.248;2022-08-01T13:15:41;29.60;99.90
16781;DHT22;8507;50.056;8.248;2022-08-01T13:18:30;29.80;99.90
16781;DHT22;8507;50.056;8.248;2022-08-01T13:21:27;29.60;99.90
16781;DHT22;8507;50.056;8.248;2022-08-01T13:24:12;29.70;99.90
16781;DHT22;8507;50.056;8.248;2022-08-01T13:29:08;29.80;99.90
16781;DHT22;8507;50.056;8.248;2022-08-01T13:31:35;29.60;99.90
16781;DHT22;8507;50.056;8.248;2022-08-01T13:34:02;29.60;99.90
16781;DHT22;8507;50.056;8.248;2022-08-01T13:36:28;29.60;99.90
16781;DHT22;8507;50.056;8.248;2022-08-01T13:38:54;28.80;99.90
16781;DHT22;8507;50.056;8.248;2022-08-01T13:41:39;28.30;99.90
16781;DHT22;8507;50.056;8.248;2022-08-01T13:44:04;27.70;99.90
16781;DHT22;8507;50.056;8.248;2022-08-01T13:46:31;27.60;99.90
16781;DHT22;8507;50.056;8.248;2022-08-01T13:48:57;27.10;99.90
16781;DHT22;8507;50.056;8.248;2022-08-01T13:51:22;27.00;99.90
16781;DHT22;8507;50.056;8.248;2022-08-01T13:53:48;27.10;99.90
16781;DHT22;8507;50.056;8.248;2022-08-01T13:56:13;26.90;99.90
16781;DHT22;8507;50.056;8.248;2022-08-01T13:58:41;27.00;99.90
16781;DHT22;8507;50.056;8.248;2022-08-01T14:01:07;27.10;99.90
16781;DHT22;8507;50.056;8.248;2022-08-01T14:03:32;26.90;99.90
16781;DHT22;8507;50.056;8.248;2022-08-01T14:05:58;26.80;99.90
16781;DHT22;8507;50.056;8.248;2022-08-01T14:08:23;26.80;99.90
16781;DHT22;8507;50.056;8.248;2022-08-01T14:10:49;26.90;99.90
16781;DHT22;8507;50.056;8.248;2022-08-01T14:13:15;27.00;99.90
16781;DHT22;8507;50.056;8.248;2022-08-01T14:15:40;27.00;99.90
16781;DHT22;8507;50.056;8.248;2022-08-01T14:18:07;26.90;99.90
16781;DHT22;8507;50.056;8.248;2022-08-01T14:20:34;27.00;99.90
16781;DHT22;8507;50.056;8.248;2022-08-01T14:22:59;27.10;99.90
16781;DHT22;8507;50.056;8.248;2022-08-01T14:25:25;26.90;99.90
16781;DHT22;8507;50.056;8.248;2022-08-01T14:27:50;26.30;99.90
16781;DHT22;8507;50.056;8.248;2022-08-01T14:30:16;25.60;99.90
16781;DHT22;8507;50.056;8.248;2022-08-01T14:32:41;25.20;99.90
16781;DHT22;8507;50.056;8.248;2022-08-01T14:35:07;25.10;99.90
16781;DHT22;8507;50.056;8.248;2022-08-01T14:37:33;24.90;99.90
16781;DHT22;8507;50.056;8.248;2022-08-01T14:40:00;24.60;99.90
16781;DHT22;8507;50.056;8.248;2022-08-01T14:42:30;24.60;99.90
16781;DHT22;8507;50.056;8.248;2022-08-01T14:44:55;24.70;99.90
16781;DHT22;8507;50.056;8.248;2022-08-01T14:47:21;24.90;99.90
16781;DHT22;8507;50.056;8.248;2022-08-01T14:49:46;25.10;99.90
16781;DHT22;8507;50.056;8.248;2022-08-01T14:52:12;25.20;99.90
16781;DHT22;8507;50.056;8.248;2022-08-01T14:54:37;25.40;99.90
16781;DHT22;8507;50.056;8.248;2022-08-01T14:57:03;25.60;99.90
16781;DHT22;8507;50.056;8.248;2022-08-01T14:59:28;25.60;99.90
16781;DHT22;8507;50.056;8.248;2022-08-01T15:01:54;25.90;99.90
16781;DHT22;8507;50.056;8.248;2022-08-01T15:04:20;26.00;99.90
16781;DHT22;8507;50.056;8.248;2022-08-01T15:06:45;26.10;99.90
16781;DHT22;8507;50.056;8.248;2022-08-01T15:09:11;26.10;99.90
16781;DHT22;8507;50.056;8.248;2022-08-01T15:11:37;26.20;99.90
16781;DHT22;8507;50.056;8.248;2022-08-01T15:14:02;26.10;99.90
16781;DHT22;8507;50.056;8.248;2022-08-01T15:16:47;26.50;99.90
16781;DHT22;8507;50.056;8.248;2022-08-01T15:19:13;27.00;99.90
16781;DHT22;8507;50.056;8.248;2022-08-01T15:21:39;26.70;99.90
16781;DHT22;8507;50.056;8.248;2022-08-01T15:24:04;27.20;99.90
16781;DHT22;8507;50.056;8.248;2022-08-01T15:26:30;26.60;99.90
16781;DHT22;8507;50.056;8.248;2022-08-01T15:28:56;26.30;99.90
16781;DHT22;8507;50.056;8.248;2022-08-01T15:31:21;26.20;99.90
16781;DHT22;8507;50.056;8.248;2022-08-01T15:33:47;26.40;99.90
16781;DHT22;8507;50.056;8.248;2022-08-01T15:36:13;26.70;99.90
16781;DHT22;8507;50.056;8.248;2022-08-01T15:38:38;26.70;99.90
16781;DHT22;8507;50.056;8.248;2022-08-01T15:41:04;26.60;99.90
16781;DHT22;8507;50.056;8.248;2022-08-01T15:43:29;26.80;99.90
16781;DHT22;8507;50.056;8.248;2022-08-01T15:45:55;26.60;99.90
16781;DHT22;8507;50.056;8.248;2022-08-01T15:48:20;26.60;99.90
16781;DHT22;8507;50.056;8.248;2022-08-01T15:50:47;26.40;99.90
16781;DHT22;8507;50.056;8.248;2022-08-01T15:53:13;26.50;99.90
16781;DHT22;8507;50.056;8.248;2022-08-01T15:55:39;26.60;99.90
16781;DHT22;8507;50.056;8.248;2022-08-01T15:58:05;26.50;99.90
16781;DHT22;8507;50.056;8.248;2022-08-01T16:00:30;26.40;99.90
16781;DHT22;8507;50.056;8.248;2022-08-01T16:02:56;26.30;99.90
16781;DHT22;8507;50.056;8.248;2022-08-01T16:05:22;26.50;99.90
16781;DHT22;8507;50.056;8.248;2022-08-01T16:07:48;26.50;99.90
16781;DHT22;8507;50.056;8.248;2022-08-01T16:10:13;26.40;99.90
16781;DHT22;8507;50.056;8.248;2022-08-01T16:12:39;26.40;99.90
16781;DHT22;8507;50.056;8.248;2022-08-01T16:15:05;26.40;99.90